X  SluitMETAR luchtvaart weer gegevens      EHGG Eelde

Temperatuur

10°C Temperatuur

9°C Dauwpunt

94% Vochtigheid



Wind

10 KM/U

 6 MPH

 3 M/S

 5 KTS



220°
Zuid West
Huidig weer

Lichte regen Lichte regen
Luchtdruk 1009.92 (hPa) - 29.82 (in)
Zicht 5.6 (mi) - 9 (km)
Vliegveld
Vliegveld code EHGG

Locatie Eelde 20 (km)

Metar:
EHGG 260555Z AUTO 22005KT 180V240 9000 -RA SCT015CB 10/09 Q1010 TEMPO 7000 RA SHRA FEW070CB

Tijd: 26-04-2019 07:55